Terminal Aerodrome Forecast
Issued by NWS

Home | Current Version | Previous Version | Graphics & Text | Print | Product List | Glossary On
Versions: 1 2 3 4 5 6 7 8 9 10 11 12 13 14 15 16 17 18 19 20 21 22 23
000
FTUS43 KMPX 271120
TAFAXN
TAF
KAXN 271120Z 2712/2812 13008KT P6SM FEW250
     FM271600 14012G19KT P6SM FEW050 BKN250
     FM280000 14011G17KT P6SM VCTS BKN040CB
     FM280800 16016G24KT 5SM -TSRA OVC040CB=

USA.gov is the U.S. government's official web portal to all federal, state and local government web resources and services.